Time;durP1;ratioP1;P1;durP2;ratioP2;P2;SDS_P1;SDS_P2;PMS_P1;PMS_P2;Temp;Humidity;BMP_temperature;BMP_pressure;BME280_temperature;BME280_humidity;BME280_pressure;Samples;Min_cycle;Max_cycle;Signal;HPM_P1;HPM_P2
2023/02/04 00:00:23;;;;;;;1.60;1.20;;;5.10;99.90;;;;;;5038656;28;20186;-86
2023/02/04 00:02:50;;;;;;;1.40;1.30;;;5.10;99.90;;;;;;5059945;28;20206;-86
2023/02/04 00:05:20;;;;;;;1.53;1.40;;;5.10;99.90;;;;;;5042788;28;20670;-87
2023/02/04 00:07:47;;;;;;;2.27;1.60;;;5.10;99.90;;;;;;5047936;28;20201;-86
2023/02/04 00:10:15;;;;;;;1.50;1.40;;;5.10;99.90;;;;;;5036470;28;20201;-87
2023/02/04 00:12:42;;;;;;;1.40;1.30;;;5.10;99.90;;;;;;5057340;28;20240;-86
2023/02/04 01:13:41;;;;;;;3.07;2.03;;;4.90;99.90;;;;;;5207637;22;20346;-86
2023/02/04 01:16:09;;;;;;;5.07;3.60;;;4.90;99.90;;;;;;5015777;28;20213;-86
2023/02/04 01:18:36;;;;;;;1.20;1.10;;;4.80;99.90;;;;;;5015785;28;20238;-86
2023/02/04 01:21:03;;;;;;;1.30;1.17;;;4.90;99.90;;;;;;5016118;28;20301;-86
2023/02/04 01:23:30;;;;;;;1.73;1.50;;;4.90;99.90;;;;;;5027933;28;20568;-87
2023/02/04 01:25:56;;;;;;;1.30;1.10;;;4.90;99.90;;;;;;5003606;28;20215;-87
2023/02/04 01:28:23;;;;;;;1.33;1.23;;;4.90;99.90;;;;;;5012371;28;20215;-86
2023/02/04 01:30:52;;;;;;;3.17;1.70;;;4.90;99.90;;;;;;5023514;28;20213;-86
2023/02/04 01:33:18;;;;;;;1.47;1.07;;;4.90;99.90;;;;;;5027695;28;20567;-86
2023/02/04 01:35:45;;;;;;;2.47;1.70;;;4.90;99.90;;;;;;5016471;28;20187;-86
2023/02/04 01:38:59;;;;;;;1.30;1.20;;;5.00;99.90;;;;;;5016772;28;20223;-86
2023/02/04 01:41:27;;;;;;;1.97;1.10;;;5.00;99.90;;;;;;5016533;28;20199;-86
2023/02/04 01:43:54;;;;;;;2.77;1.93;;;5.00;99.90;;;;;;5016109;28;20194;-86
2023/02/04 01:46:23;;;;;;;3.47;1.30;;;5.00;99.90;;;;;;5018170;28;20195;-86
2023/02/04 01:48:50;;;;;;;2.87;1.30;;;5.00;99.90;;;;;;5017487;28;20302;-86
2023/02/04 02:18:29;;;;;;;3.10;1.60;;;5.40;99.90;;;;;;5030350;28;20234;-88
2023/02/04 02:21:40;;;;;;;9.03;6.30;;;5.40;99.90;;;;;;5015539;28;20631;-88
2023/02/04 02:39:44;;;;;;;7.57;2.00;;;5.50;99.90;;;;;;5014502;23;20246;-88
2023/02/04 02:42:14;;;;;;;9.37;2.23;;;5.50;99.90;;;;;;5015484;28;20211;-88
2023/02/04 02:44:41;;;;;;;3.23;2.27;;;5.40;99.90;;;;;;5014469;28;20200;-88
2023/02/04 02:49:55;;;;;;;9.03;2.80;;;5.40;99.90;;;;;;5009681;28;20217;-88
2023/02/04 02:52:24;;;;;;;10.23;2.40;;;5.30;99.90;;;;;;5015126;28;20214;-89
2023/02/04 02:54:53;;;;;;;9.00;3.07;;;5.20;99.90;;;;;;5018103;28;20721;-88
2023/02/04 02:57:22;;;;;;;7.00;2.23;;;5.20;99.90;;;;;;5016060;28;20249;-89
2023/02/04 02:59:50;;;;;;;9.40;3.30;;;5.10;99.90;;;;;;5013253;28;20592;-89
2023/02/04 03:02:21;;;;;;;8.00;3.10;;;5.10;99.90;;;;;;5013705;28;20565;-88
2023/02/04 03:04:52;;;;;;;9.60;3.47;;;5.10;99.90;;;;;;5016045;28;20199;-88
2023/02/04 03:07:20;;;;;;;11.93;3.07;;;5.10;99.90;;;;;;5013729;28;20215;-88
2023/02/04 03:09:48;;;;;;;8.87;3.23;;;5.10;99.90;;;;;;5015806;28;20199;-88
2023/02/04 03:12:18;;;;;;;9.20;4.37;;;5.10;99.90;;;;;;5013385;28;20221;-88
2023/02/04 03:14:45;;;;;;;13.67;4.43;;;5.20;99.90;;;;;;4996983;28;20203;-89
2023/02/04 03:17:12;;;;;;;9.87;2.83;;;5.10;99.90;;;;;;5017932;28;20207;-87
2023/02/04 03:19:39;;;;;;;14.50;3.50;;;5.00;99.90;;;;;;5025105;28;20223;-88
2023/02/04 03:22:07;;;;;;;12.63;4.97;;;4.90;99.90;;;;;;5013217;28;20207;-88
2023/02/04 03:24:35;;;;;;;14.30;3.93;;;4.90;99.90;;;;;;5012810;28;20577;-88
2023/02/04 03:27:02;;;;;;;8.23;2.70;;;5.00;99.90;;;;;;5024405;28;20206;-88
2023/02/04 03:29:30;;;;;;;9.30;3.43;;;5.00;99.90;;;;;;5024059;28;20690;-88
2023/02/04 03:31:58;;;;;;;12.33;3.20;;;5.00;99.90;;;;;;4986722;28;20235;-88
2023/02/04 03:34:25;;;;;;;8.57;2.87;;;5.00;99.90;;;;;;5023935;28;20199;-87
2023/02/04 03:36:52;;;;;;;11.30;2.97;;;5.00;99.90;;;;;;5011983;28;20218;-88
2023/02/04 03:39:19;;;;;;;11.87;3.87;;;5.00;99.90;;;;;;5014327;28;20711;-88
2023/02/04 03:41:46;;;;;;;10.37;3.30;;;5.00;99.90;;;;;;5012209;28;20210;-88
2023/02/04 03:44:13;;;;;;;13.03;3.40;;;5.00;99.90;;;;;;5014981;28;20210;-88
2023/02/04 03:46:42;;;;;;;14.83;2.80;;;5.10;99.90;;;;;;5016721;28;20216;-90
2023/02/04 03:49:08;;;;;;;10.63;3.20;;;5.10;99.90;;;;;;5016345;28;20286;-88
2023/02/04 03:51:36;;;;;;;13.10;3.13;;;5.10;99.90;;;;;;5008252;28;20681;-88
2023/02/04 03:54:03;;;;;;;11.13;3.93;;;5.10;99.90;;;;;;5011943;28;20226;-89
2023/02/04 03:56:29;;;;;;;10.43;3.57;;;5.20;99.90;;;;;;5017045;28;20211;-87
2023/02/04 03:58:56;;;;;;;10.23;3.30;;;5.20;99.90;;;;;;5010342;28;20233;-87
2023/02/04 04:01:23;;;;;;;9.97;3.53;;;5.20;99.90;;;;;;5017624;28;20210;-88
2023/02/04 04:03:51;;;;;;;9.77;3.27;;;5.20;99.90;;;;;;5014375;28;20203;-88
2023/02/04 04:06:18;;;;;;;12.80;3.20;;;5.30;99.90;;;;;;5006056;28;20195;-88
2023/02/04 04:08:45;;;;;;;11.30;3.80;;;5.40;99.90;;;;;;5010584;28;20665;-88
2023/02/04 04:11:12;;;;;;;8.33;3.03;;;5.30;99.90;;;;;;5001285;28;20601;-88
2023/02/04 04:13:39;;;;;;;11.57;3.53;;;5.30;99.90;;;;;;4993524;28;20203;-88
2023/02/04 04:16:07;;;;;;;8.27;3.00;;;5.20;99.90;;;;;;5012365;28;20249;-88
2023/02/04 04:18:35;;;;;;;14.27;3.30;;;5.20;99.90;;;;;;5010004;28;20227;-88
2023/02/04 04:21:03;;;;;;;11.13;3.17;;;5.20;99.90;;;;;;5009964;28;20211;-88
2023/02/04 04:23:30;;;;;;;6.40;2.57;;;5.10;99.60;;;;;;5004785;28;20236;-87
2023/02/04 04:25:57;;;;;;;13.17;3.67;;;5.10;99.50;;;;;;5011451;28;20199;-87
2023/02/04 04:28:24;;;;;;;12.53;3.27;;;5.00;99.40;;;;;;5012709;28;20828;-88
2023/02/04 04:30:53;;;;;;;9.93;2.70;;;4.90;99.40;;;;;;4995343;28;20199;-91
2023/02/04 04:33:19;;;;;;;9.70;3.20;;;4.90;99.30;;;;;;5008310;28;20205;-86
2023/02/04 04:35:47;;;;;;;11.87;2.93;;;4.80;99.30;;;;;;5010892;28;20195;-87
2023/02/04 04:38:15;;;;;;;10.27;2.90;;;4.70;99.30;;;;;;5007010;28;20199;-87
2023/02/04 04:40:42;;;;;;;11.47;3.23;;;4.70;99.40;;;;;;5005853;28;20200;-88
2023/02/04 04:43:08;;;;;;;12.33;2.87;;;4.60;99.40;;;;;;5009369;28;20200;-88
2023/02/04 04:45:35;;;;;;;11.90;3.20;;;4.50;99.80;;;;;;5014463;28;20198;-86
2023/02/04 04:48:02;;;;;;;11.20;3.53;;;4.40;99.70;;;;;;5013432;28;20209;-88
2023/02/04 04:50:29;;;;;;;11.97;3.00;;;4.50;99.50;;;;;;5012337;28;20207;-85
2023/02/04 04:52:56;;;;;;;13.27;3.60;;;4.40;99.20;;;;;;5011109;28;20200;-87
2023/02/04 04:55:25;;;;;;;10.27;2.97;;;4.40;99.20;;;;;;5013329;28;20652;-86
2023/02/04 04:57:52;;;;;;;9.70;3.00;;;4.40;99.10;;;;;;5009128;28;20694;-87
2023/02/04 05:00:20;;;;;;;11.70;3.77;;;4.30;99.00;;;;;;5006400;28;20215;-87
2023/02/04 05:02:47;;;;;;;9.90;3.00;;;4.30;99.40;;;;;;5014071;28;20195;-88
2023/02/04 05:05:14;;;;;;;12.23;2.83;;;4.30;99.40;;;;;;5015463;28;20219;-85
2023/02/04 05:07:41;;;;;;;12.13;2.90;;;4.30;99.30;;;;;;5018250;28;20203;-88
2023/02/04 05:10:09;;;;;;;14.47;3.47;;;4.20;99.10;;;;;;5007970;28;20226;-88
2023/02/04 05:12:37;;;;;;;11.03;2.60;;;4.10;99.50;;;;;;5014822;28;20215;-94
2023/02/04 05:15:05;;;;;;;10.20;3.03;;;4.10;99.40;;;;;;5014164;28;20215;-86
2023/02/04 05:17:32;;;;;;;12.10;2.80;;;4.10;99.60;;;;;;5005457;28;20663;-85
2023/02/04 05:19:59;;;;;;;9.10;3.00;;;4.10;99.60;;;;;;5014393;28;20226;-88
2023/02/04 05:22:26;;;;;;;8.37;2.70;;;4.00;99.20;;;;;;5014186;28;20211;-88
2023/02/04 05:24:52;;;;;;;8.97;2.80;;;4.00;99.10;;;;;;5013262;28;20237;-87
2023/02/04 05:27:19;;;;;;;13.17;3.30;;;4.00;99.40;;;;;;5012652;28;20564;-91
2023/02/04 05:29:48;;;;;;;9.73;2.83;;;4.00;99.10;;;;;;5005152;28;20207;-87
2023/02/04 05:32:15;;;;;;;14.87;3.40;;;4.10;99.40;;;;;;5009092;28;20211;-88
2023/02/04 05:34:41;;;;;;;10.60;3.27;;;4.10;98.90;;;;;;5012677;28;20215;-89
2023/02/04 05:37:08;;;;;;;9.37;2.80;;;4.20;98.80;;;;;;5007397;28;20200;-88
2023/02/04 05:39:35;;;;;;;11.27;2.97;;;4.30;98.30;;;;;;5017102;28;20239;-88
2023/02/04 05:42:02;;;;;;;8.47;2.70;;;4.30;98.10;;;;;;5011527;28;20222;-89
2023/02/04 05:44:29;;;;;;;10.10;2.33;;;4.40;97.90;;;;;;5011537;28;20671;-89
2023/02/04 05:46:57;;;;;;;14.43;2.97;;;4.40;97.50;;;;;;5017457;28;20206;-88
2023/02/04 05:49:24;;;;;;;12.40;3.63;;;4.40;97.60;;;;;;5013215;28;20215;-89
2023/02/04 05:51:51;;;;;;;10.80;3.13;;;4.50;97.50;;;;;;5010831;28;20211;-88
2023/02/04 05:54:19;;;;;;;14.27;3.13;;;4.50;97.20;;;;;;5010966;28;20670;-90
2023/02/04 05:56:46;;;;;;;11.43;2.60;;;4.40;97.20;;;;;;5008755;28;20679;-90
2023/02/04 05:59:13;;;;;;;13.40;2.83;;;4.50;97.20;;;;;;5007050;28;20602;-91
2023/02/04 06:01:40;;;;;;;9.57;2.60;;;4.50;97.20;;;;;;5004020;28;20821;-89
2023/02/04 06:04:08;;;;;;;12.20;3.47;;;4.50;97.20;;;;;;5009312;28;20216;-87
2023/02/04 06:06:35;;;;;;;12.00;3.73;;;4.50;97.20;;;;;;5002887;28;20561;-88
2023/02/04 06:09:02;;;;;;;9.47;2.97;;;4.50;97.20;;;;;;5009340;28;20214;-89
2023/02/04 06:11:29;;;;;;;10.87;3.33;;;4.50;97.00;;;;;;5009828;28;20205;-88
2023/02/04 06:13:56;;;;;;;9.33;2.40;;;4.50;97.10;;;;;;5005058;28;20266;-88
2023/02/04 06:16:23;;;;;;;11.70;2.97;;;4.50;97.40;;;;;;5003988;28;20209;-88
2023/02/04 06:18:50;;;;;;;9.83;3.00;;;4.60;97.20;;;;;;4999241;28;20215;-88
2023/02/04 06:21:18;;;;;;;9.47;2.87;;;4.50;97.30;;;;;;5010225;28;20202;-87
2023/02/04 06:23:45;;;;;;;16.63;3.37;;;4.60;97.60;;;;;;5012838;28;20233;-92
2023/02/04 06:26:12;;;;;;;9.87;2.73;;;4.60;97.60;;;;;;5007098;28;20211;-88
2023/02/04 06:28:39;;;;;;;9.20;3.07;;;4.70;97.60;;;;;;5012088;28;20219;-87
2023/02/04 06:31:07;;;;;;;12.57;3.70;;;4.70;97.60;;;;;;5010382;28;20206;-88
2023/02/04 06:33:35;;;;;;;10.33;2.97;;;4.70;97.30;;;;;;5011044;28;20274;-90
2023/02/04 06:36:01;;;;;;;12.57;2.87;;;4.70;97.60;;;;;;5008914;28;20558;-88
2023/02/04 06:38:30;;;;;;;9.37;3.00;;;4.70;97.60;;;;;;5008458;28;20208;-87
2023/02/04 06:40:57;;;;;;;6.27;2.57;;;4.70;97.90;;;;;;5011703;28;20230;-87
2023/02/04 06:43:26;;;;;;;11.87;3.43;;;4.60;98.30;;;;;;5008677;28;20307;-90
2023/02/04 06:45:53;;;;;;;11.30;2.87;;;4.60;98.20;;;;;;5009527;28;20199;-88
2023/02/04 06:48:20;;;;;;;12.10;3.60;;;4.60;98.40;;;;;;5011475;28;20211;-88
2023/02/04 06:50:47;;;;;;;7.90;3.43;;;4.60;99.00;;;;;;5010207;28;20218;-88
2023/02/04 06:53:14;;;;;;;12.60;3.60;;;4.60;98.60;;;;;;5012304;28;20285;-87
2023/02/04 06:55:42;;;;;;;9.93;3.13;;;4.80;98.80;;;;;;5014294;28;20207;-87
2023/02/04 06:58:09;;;;;;;10.00;3.27;;;4.70;98.40;;;;;;5007781;28;20237;-89
2023/02/04 07:00:36;;;;;;;11.10;3.23;;;4.80;98.20;;;;;;5005711;28;20239;-88
2023/02/04 07:03:03;;;;;;;8.67;3.00;;;4.80;98.20;;;;;;5004569;28;20211;-88
2023/02/04 07:05:30;;;;;;;10.53;3.07;;;4.80;98.10;;;;;;5006883;28;20231;-89
2023/02/04 07:07:57;;;;;;;11.27;3.10;;;4.80;97.40;;;;;;5007780;28;20199;-88
2023/02/04 07:10:24;;;;;;;8.00;2.70;;;4.90;97.30;;;;;;5010825;28;20210;-91
2023/02/04 07:12:53;;;;;;;9.57;3.37;;;4.90;96.90;;;;;;5010867;28;20234;-88
2023/02/04 07:15:20;;;;;;;8.60;2.67;;;4.80;97.20;;;;;;5011922;28;20581;-88
2023/02/04 07:17:47;;;;;;;8.97;4.27;;;4.80;97.00;;;;;;5001304;28;20203;-94
2023/02/04 07:20:13;;;;;;;10.07;3.00;;;4.80;96.90;;;;;;5007326;28;20606;-91
2023/02/04 07:22:41;;;;;;;11.63;2.80;;;4.90;96.90;;;;;;5012351;28;20211;-90
2023/02/04 07:25:09;;;;;;;9.00;2.70;;;4.80;96.70;;;;;;5013175;28;20227;-88
2023/02/04 07:27:36;;;;;;;9.47;3.03;;;4.90;96.30;;;;;;5009072;28;20636;-87
2023/02/04 07:30:05;;;;;;;6.80;2.67;;;4.90;95.90;;;;;;5003680;28;20212;-89
2023/02/04 07:32:32;;;;;;;10.90;3.57;;;5.00;95.90;;;;;;5009305;28;20199;-95
2023/02/04 07:34:59;;;;;;;7.33;2.67;;;5.00;96.00;;;;;;5012355;28;20262;-92
2023/02/04 07:37:26;;;;;;;10.33;2.90;;;5.10;95.70;;;;;;5006631;28;20647;-90
2023/02/04 07:39:53;;;;;;;11.37;3.07;;;5.00;95.40;;;;;;5011130;28;20235;-89
2023/02/04 07:42:20;;;;;;;9.77;2.60;;;5.00;95.50;;;;;;5009577;28;20210;-90
2023/02/04 07:44:47;;;;;;;8.03;2.60;;;5.00;95.10;;;;;;5014107;28;20213;-88
2023/02/04 07:47:35;;;;;;;6.30;2.67;;;5.00;95.10;;;;;;5004088;28;20211;-90
2023/02/04 07:50:02;;;;;;;5.07;1.90;;;5.10;95.10;;;;;;5004200;28;20210;-91
2023/02/04 07:52:29;;;;;;;7.50;2.73;;;5.00;95.10;;;;;;5013802;28;20249;-90
2023/02/04 07:58:54;;;;;;;9.07;2.67;;;5.00;95.10;;;;;;4994694;28;20267;-90
2023/02/04 08:01:22;;;;;;;8.73;2.30;;;5.00;95.20;;;;;;4994382;28;20271;-90
2023/02/04 08:03:51;;;;;;;10.80;2.50;;;5.00;94.90;;;;;;4994541;28;20232;-89
2023/02/04 08:06:59;;;;;;;11.20;2.50;;;5.00;94.50;;;;;;4994298;28;20203;-89
2023/02/04 08:09:26;;;;;;;8.07;2.23;;;4.90;94.50;;;;;;4994963;28;20210;-89
2023/02/04 08:11:53;;;;;;;8.43;2.63;;;5.00;94.70;;;;;;5007694;28;20265;-91
2023/02/04 08:14:38;;;;;;;10.27;2.70;;;5.10;94.40;;;;;;5015613;28;20205;-91
2023/02/04 08:17:05;;;;;;;8.60;2.90;;;5.10;94.10;;;;;;5014097;28;20643;-93
2023/02/04 08:19:33;;;;;;;9.83;2.83;;;5.10;93.90;;;;;;5014750;28;20317;-93
2023/02/04 08:28:00;;;;;;;8.23;2.63;;;5.20;93.90;;;;;;5847306;22;20234;-88
2023/02/04 08:30:27;;;;;;;11.23;2.70;;;5.20;93.60;;;;;;5015407;28;20226;-91
2023/02/04 08:33:18;;;;;;;7.57;2.57;;;5.20;93.60;;;;;;5018212;28;20217;-91
2023/02/04 08:35:46;;;;;;;8.73;2.70;;;5.30;93.90;;;;;;4995848;28;20211;-88
2023/02/04 08:38:13;;;;;;;10.17;2.80;;;5.30;94.20;;;;;;5017555;28;20211;-93
2023/02/04 08:40:40;;;;;;;10.27;2.53;;;5.50;93.80;;;;;;5014458;28;20229;-87
2023/02/04 08:43:07;;;;;;;8.97;2.70;;;5.40;93.20;;;;;;5016944;28;20209;-88
2023/02/04 08:45:34;;;;;;;6.43;2.50;;;5.50;93.10;;;;;;5015435;28;20231;-88
2023/02/04 08:48:01;;;;;;;12.87;2.70;;;5.50;93.00;;;;;;5022358;28;20607;-94
2023/02/04 08:51:20;;;;;;;8.57;2.73;;;5.50;93.30;;;;;;5029336;28;20563;-89
2023/02/04 08:53:48;;;;;;;8.33;2.33;;;5.60;92.90;;;;;;4996983;28;20206;-89
2023/02/04 08:56:19;;;;;;;9.83;3.13;;;5.60;92.50;;;;;;5002025;28;20207;-89
2023/02/04 08:58:46;;;;;;;9.87;2.97;;;5.60;92.50;;;;;;4988227;28;20215;-90
2023/02/04 09:01:23;;;;;;;9.50;2.80;;;5.50;93.20;;;;;;5016499;28;20234;-89
2023/02/04 09:03:50;;;;;;;10.40;2.87;;;5.50;93.40;;;;;;5014716;28;20201;-94
2023/02/04 09:06:17;;;;;;;9.93;2.92;;;5.50;92.80;;;;;;5015257;28;20209;-89
2023/02/04 09:08:44;;;;;;;9.38;2.50;;;6.10;92.50;;;;;;5017784;28;20202;-91
2023/02/04 09:11:13;;;;;;;7.65;2.40;;;6.80;90.90;;;;;;5020702;28;20294;-90
2023/02/04 09:13:41;;;;;;;11.35;2.53;;;7.50;85.90;;;;;;5016781;28;20223;-90
2023/02/04 09:19:34;;;;;;;8.35;2.80;;;9.20;60.70;;;;;;5017633;28;20548;-88
2023/02/04 09:22:18;;;;;;;8.10;2.55;;;9.10;54.00;;;;;;5016656;28;20211;-87
2023/02/04 09:24:46;;;;;;;9.80;2.53;;;9.00;54.90;;;;;;5002949;23;20667;-89
2023/02/04 09:31:06;;;;;;;7.75;2.30;;;7.90;67.80;;;;;;4930089;29;20220;-91
2023/02/04 09:33:34;;;;;;;9.23;2.70;;;7.90;76.90;;;;;;4933077;29;20209;-89
2023/02/04 09:36:04;;;;;;;10.77;2.30;;;7.80;75.20;;;;;;4935700;29;20233;-82
2023/02/04 09:38:30;;;;;;;9.35;2.58;;;7.50;74.30;;;;;;4927429;29;20368;-89
2023/02/04 09:41:01;;;;;;;9.80;2.70;;;7.20;76.20;;;;;;4921566;29;20238;-88
2023/02/04 09:43:31;;;;;;;9.07;2.30;;;6.90;80.60;;;;;;4924243;29;20214;-88
2023/02/04 09:45:59;;;;;;;9.10;2.67;;;6.70;82.20;;;;;;4928669;28;20208;-88
2023/02/04 09:48:26;;;;;;;11.07;2.53;;;6.50;87.00;;;;;;4924381;29;20666;-91
2023/02/04 09:51:02;;;;;;;9.13;2.42;;;6.50;89.10;;;;;;4947090;29;20577;-87
2023/02/04 09:53:31;;;;;;;7.80;2.83;;;6.70;85.80;;;;;;4934623;29;20761;-89
2023/02/04 09:55:58;;;;;;;8.77;2.58;;;6.80;83.30;;;;;;4935223;29;20220;-90
2023/02/04 09:58:29;;;;;;;7.50;2.20;;;6.70;83.60;;;;;;4936278;29;20709;-90
2023/02/04 10:01:01;;;;;;;8.23;2.10;;;6.60;82.60;;;;;;4964662;28;20220;-89
2023/02/04 10:06:57;;;;;;;11.52;2.50;;;6.60;84.80;;;;;;4994095;28;20253;-91
2023/02/04 10:12:17;;;;;;;11.68;2.67;;;6.50;84.80;;;;;;4985739;28;20215;-94
2023/02/04 10:14:44;;;;;;;10.35;2.60;;;6.70;87.10;;;;;;4992915;28;20199;-91
2023/02/04 10:17:16;;;;;;;9.15;2.75;;;6.80;84.50;;;;;;4994316;28;20208;-90
2023/02/04 10:19:43;;;;;;;9.63;2.78;;;6.70;85.60;;;;;;4994904;28;20211;-89
2023/02/04 10:22:17;;;;;;;13.77;2.63;;;6.80;85.10;;;;;;4977169;28;20561;-89
2023/02/04 10:24:45;;;;;;;10.85;3.10;;;6.50;86.20;;;;;;5000347;28;20330;-93
2023/02/04 10:27:15;;;;;;;10.50;2.90;;;6.50;87.60;;;;;;4999367;28;20572;-94
2023/02/04 10:29:44;;;;;;;10.60;3.70;;;6.50;86.90;;;;;;4982290;28;20219;-92
2023/02/04 10:32:29;;;;;;;7.13;2.85;;;6.60;90.00;;;;;;4977133;28;20589;-88
2023/02/04 10:35:07;;;;;;;4.78;2.40;;;6.60;87.00;;;;;;4978084;28;20243;-89
2023/02/04 10:37:34;;;;;;;4.82;2.17;;;6.40;87.90;;;;;;4978411;28;20224;-93
2023/02/04 10:40:08;;;;;;;4.93;2.57;;;6.00;89.60;;;;;;4976504;28;20324;-90
2023/02/04 10:42:36;;;;;;;2.78;2.17;;;5.90;90.60;;;;;;4976763;28;20224;-89
2023/02/04 10:45:11;;;;;;;2.33;2.13;;;5.80;91.10;;;;;;4976808;28;20318;-89
2023/02/04 10:47:58;;;;;;;4.10;2.45;;;5.80;91.40;;;;;;4975576;28;20287;-89
2023/02/04 10:50:26;;;;;;;4.03;2.15;;;5.70;92.10;;;;;;4971230;28;20243;-88
2023/02/04 10:54:28;;;;;;;6.60;2.50;;;5.70;92.00;;;;;;4976259;28;20220;-89
2023/02/04 10:55:42;;;;;;;2.70;1.98;;;5.40;92.80;;;;;;4975256;28;20857;-89
2023/02/04 10:58:12;;;;;;;4.43;2.47;;;5.30;93.00;;;;;;4974123;28;20231;-90
2023/02/04 11:00:40;;;;;;;3.63;2.20;;;5.20;93.40;;;;;;4975059;28;20235;-93
2023/02/04 11:03:15;;;;;;;4.13;1.80;;;5.20;93.30;;;;;;4972871;28;20220;-88
2023/02/04 11:05:45;;;;;;;4.73;2.37;;;5.40;92.90;;;;;;4978810;28;20234;-89
2023/02/04 11:08:22;;;;;;;3.30;2.20;;;5.40;93.20;;;;;;4953779;28;20230;-91
2023/02/04 11:10:55;;;;;;;3.97;2.42;;;5.50;92.90;;;;;;4977547;28;20609;-91
2023/02/04 11:13:25;;;;;;;5.10;2.00;;;5.80;92.70;;;;;;5004856;28;20258;-89
2023/02/04 11:16:08;;;;;;;4.07;1.73;;;6.30;90.50;;;;;;5000135;28;20216;-89
2023/02/04 11:18:49;;;;;;;3.08;1.77;;;6.70;82.10;;;;;;4980594;28;20264;-90
2023/02/04 11:21:27;;;;;;;4.88;2.05;;;6.50;80.10;;;;;;4995723;28;20246;-90
2023/02/04 11:29:38;;;;;;;4.07;1.30;;;6.20;84.50;;;;;;5175855;23;20616;-89
2023/02/04 11:32:06;;;;;;;1.80;1.05;;;6.20;85.00;;;;;;5011565;28;20213;-91
2023/02/04 11:37:39;;;;;;;5.70;1.58;;;6.10;89.70;;;;;;5005295;28;20282;-88
2023/02/04 11:43:13;;;;;;;1.88;1.20;;;6.40;85.10;;;;;;5008290;28;20207;-93
2023/02/04 11:45:41;;;;;;;3.47;1.35;;;6.50;83.10;;;;;;5012846;28;20207;-91
2023/02/04 11:48:25;;;;;;;1.48;1.17;;;6.50;81.00;;;;;;5013884;28;20211;-89
2023/02/04 11:51:10;;;;;;;3.30;1.60;;;6.60;82.00;;;;;;4994349;28;20203;-88
2023/02/04 11:53:37;;;;;;;2.95;1.88;;;7.00;81.20;;;;;;4992641;28;20219;-89
2023/02/04 11:56:05;;;;;;;2.65;1.80;;;6.90;75.40;;;;;;4993166;28;20242;-86
2023/02/04 11:58:32;;;;;;;1.85;1.70;;;6.60;76.10;;;;;;5000022;28;20223;-87
2023/02/04 12:00:59;;;;;;;3.63;2.20;;;6.40;71.20;;;;;;5003373;28;20231;-86
2023/02/04 12:03:29;;;;;;;3.08;2.20;;;6.00;78.70;;;;;;4998773;28;20606;-88
2023/02/04 12:05:58;;;;;;;5.65;2.20;;;5.90;80.50;;;;;;5000333;28;20235;-91
2023/02/04 12:08:37;;;;;;;3.08;2.28;;;5.70;82.50;;;;;;4999538;28;20207;-92
2023/02/04 12:11:08;;;;;;;3.95;2.22;;;5.40;87.60;;;;;;4997849;28;20226;-91
2023/02/04 12:13:48;;;;;;;3.20;2.58;;;5.40;89.30;;;;;;4995141;28;20223;-95
2023/02/04 12:16:15;;;;;;;3.53;2.53;;;5.50;89.30;;;;;;4994202;28;20321;-94
2023/02/04 12:18:43;;;;;;;4.72;2.75;;;5.50;89.30;;;;;;4991898;28;20238;-92
2023/02/04 12:21:13;;;;;;;4.00;2.60;;;5.40;89.70;;;;;;4995803;28;21588;-93
2023/02/04 12:23:47;;;;;;;2.95;1.70;;;5.50;89.30;;;;;;4996168;28;20227;-94
2023/02/04 12:26:15;;;;;;;5.00;2.80;;;5.40;90.70;;;;;;5000511;28;20236;-95
2023/02/04 12:28:42;;;;;;;4.78;2.55;;;5.30;90.50;;;;;;5004481;28;20618;-92
2023/02/04 12:31:20;;;;;;;4.55;2.75;;;5.30;90.80;;;;;;5003172;28;20218;-95
2023/02/04 12:33:56;;;;;;;4.03;2.58;;;5.40;90.40;;;;;;4992200;28;20226;-95
2023/02/04 13:10:10;;;;;;;4.45;2.38;;;5.70;87.00;;;;;;4895972;29;20301;-95
2023/02/04 13:19:02;;;;;;;3.90;2.35;;;6.00;83.90;;;;;;4974615;28;20238;-93
2023/02/04 13:32:14;;;;;;;2.42;2.20;;;6.40;79.60;;;;;;4972440;28;20812;-93
2023/02/04 13:37:25;;;;;;;5.50;3.40;;;5.90;84.40;;;;;;4964893;28;20239;-90
2023/02/04 13:39:53;;;;;;;3.97;3.22;;;6.10;84.40;;;;;;4974910;28;20816;-92
2023/02/04 13:42:23;;;;;;;15.68;10.43;;;6.20;83.50;;;;;;4965515;28;20244;-92
2023/02/04 13:44:54;;;;;;;5.03;2.92;;;6.00;82.30;;;;;;4956542;28;20748;-93
2023/02/04 13:47:22;;;;;;;4.67;3.20;;;5.90;83.70;;;;;;4953377;28;20221;-91
2023/02/04 13:49:49;;;;;;;3.15;2.55;;;5.60;84.80;;;;;;4941226;28;20220;-92
2023/02/04 13:52:17;;;;;;;3.27;2.60;;;5.50;86.40;;;;;;4952448;28;20224;-93
2023/02/04 13:54:48;;;;;;;4.95;2.20;;;5.40;86.90;;;;;;4960084;28;20223;-91
2023/02/04 13:57:16;;;;;;;3.38;2.50;;;5.40;87.70;;;;;;4986339;28;20223;-91
2023/02/04 13:59:43;;;;;;;2.85;2.55;;;5.40;88.10;;;;;;4969545;28;20223;-92
2023/02/04 14:02:10;;;;;;;5.03;3.30;;;5.30;89.10;;;;;;4960681;28;20223;-93
2023/02/04 14:04:38;;;;;;;5.23;3.13;;;5.10;88.10;;;;;;4986417;28;20224;-90
2023/02/04 14:07:05;;;;;;;3.37;2.20;;;5.10;89.10;;;;;;4984473;28;20683;-92
2023/02/04 14:09:34;;;;;;;2.83;2.42;;;5.20;87.20;;;;;;4993345;28;20262;-95
2023/02/04 14:12:03;;;;;;;2.78;1.40;;;5.10;85.10;;;;;;4990111;28;20870;-94
2023/02/04 14:14:31;;;;;;;2.37;2.13;;;5.10;84.50;;;;;;4986313;28;20227;-88
2023/02/04 14:17:08;;;;;;;2.25;1.85;;;4.90;85.80;;;;;;4963713;28;20228;-92
2023/02/04 14:19:35;;;;;;;2.37;1.30;;;5.00;84.10;;;;;;4959734;28;20220;-88
2023/02/04 14:22:06;;;;;;;2.33;2.00;;;4.90;84.40;;;;;;4957598;28;20255;-90
2023/02/04 14:24:34;;;;;;;3.77;1.80;;;4.90;82.90;;;;;;4957394;28;20232;-89
2023/02/04 14:27:06;;;;;;;3.80;2.43;;;4.80;83.70;;;;;;4959044;28;20240;-91
2023/02/04 14:29:35;;;;;;;3.70;1.90;;;5.00;83.70;;;;;;4955848;28;20296;-91
2023/02/04 14:32:09;;;;;;;2.27;1.97;;;5.10;82.80;;;;;;4957009;28;20692;-90
2023/02/04 14:34:38;;;;;;;2.30;2.10;;;5.10;81.60;;;;;;4960171;28;21765;-92
2023/02/04 14:37:06;;;;;;;3.23;2.13;;;5.20;81.80;;;;;;4955725;28;20332;-88
2023/02/04 14:39:33;;;;;;;2.47;2.20;;;5.30;80.70;;;;;;4956777;28;20287;-93
2023/02/04 14:42:03;;;;;;;3.77;2.40;;;5.30;78.90;;;;;;4926466;28;20743;-88
2023/02/04 14:47:26;;;;;;;2.30;2.17;;;5.00;80.50;;;;;;5127836;27;20616;-88
2023/02/04 14:49:53;;;;;;;3.10;2.37;;;4.80;82.60;;;;;;5112246;27;20223;-88
2023/02/04 14:52:21;;;;;;;2.33;2.13;;;4.80;83.20;;;;;;5109977;27;20223;-90
2023/02/04 14:54:48;;;;;;;3.40;2.03;;;4.90;84.20;;;;;;5110271;27;20222;-90
2023/02/04 14:57:28;;;;;;;4.10;1.67;;;4.90;84.30;;;;;;5116548;28;20302;-94
2023/02/04 15:00:06;;;;;;;2.43;2.20;;;4.90;84.00;;;;;;5125393;28;20217;-95
2023/02/04 15:13:16;;;;;;;4.43;2.20;;;4.90;82.70;;;;;;5059014;28;20276;-93
2023/02/04 15:57:44;;;;;;;3.80;1.80;;;4.60;82.30;;;;;;5034709;28;20250;-90
2023/02/04 16:00:12;;;;;;;1.93;1.60;;;4.60;82.80;;;;;;5028726;28;20202;-91
2023/02/04 16:02:39;;;;;;;1.83;1.50;;;4.60;82.10;;;;;;5036264;28;20194;-91
2023/02/04 16:05:06;;;;;;;3.33;1.60;;;4.60;81.40;;;;;;5033795;28;20569;-90
2023/02/04 16:07:33;;;;;;;3.03;1.70;;;4.50;82.60;;;;;;5033600;28;20202;-90
2023/02/04 16:10:00;;;;;;;3.40;1.90;;;4.50;84.00;;;;;;5031730;28;20206;-91
2023/02/04 16:12:28;;;;;;;11.17;5.43;;;4.40;83.40;;;;;;5036408;28;20211;-89
2023/02/04 16:14:56;;;;;;;2.00;1.70;;;4.50;86.70;;;;;;5039509;28;20213;-90
2023/02/04 16:17:24;;;;;;;67.90;27.87;;;4.50;84.90;;;;;;5038789;28;20203;-90
2023/02/04 16:19:52;;;;;;;2.60;1.90;;;4.40;87.10;;;;;;5031973;28;20716;-89
2023/02/04 16:22:20;;;;;;;5.50;2.20;;;4.40;83.50;;;;;;5029774;28;20202;-91
2023/02/04 16:24:47;;;;;;;24.97;11.93;;;4.40;84.30;;;;;;5033335;28;20309;-88
2023/02/04 16:27:16;;;;;;;4.93;3.33;;;4.50;83.60;;;;;;5100477;23;20238;-89
2023/02/04 16:29:42;;;;;;;17.57;8.63;;;4.50;83.10;;;;;;5006079;28;20246;-89
2023/02/04 16:32:11;;;;;;;37.37;16.70;;;4.40;83.80;;;;;;4990051;28;20209;-90
2023/02/04 16:34:38;;;;;;;16.03;7.77;;;4.40;87.20;;;;;;5014655;28;20206;-93
2023/02/04 16:37:05;;;;;;;2.27;2.07;;;4.40;86.40;;;;;;5013250;28;21052;-91
2023/02/04 16:39:32;;;;;;;3.40;2.07;;;4.30;84.60;;;;;;5255076;22;20768;-89
2023/02/04 16:41:59;;;;;;;10.10;5.07;;;4.40;84.30;;;;;;5019759;28;20219;-88
2023/02/04 16:44:26;;;;;;;66.40;26.43;;;4.30;85.20;;;;;;5017276;28;20242;-89
2023/02/04 16:46:53;;;;;;;7.37;3.67;;;4.50;88.70;;;;;;5016414;28;20230;-92
2023/02/04 16:49:22;;;;;;;22.13;9.97;;;4.50;84.70;;;;;;5015519;28;20241;-89
2023/02/04 16:51:49;;;;;;;2.43;2.23;;;4.50;86.30;;;;;;5016333;28;20306;-91
2023/02/04 16:54:16;;;;;;;27.00;13.27;;;4.50;84.40;;;;;;5015323;28;20657;-87
2023/02/04 16:56:43;;;;;;;10.37;5.33;;;4.50;88.70;;;;;;5014269;28;20268;-88
2023/02/04 16:59:10;;;;;;;3.37;2.20;;;4.50;87.80;;;;;;5013392;28;20207;-90
2023/02/04 17:01:37;;;;;;;3.03;2.23;;;4.50;84.80;;;;;;5020356;28;20219;-93
2023/02/04 17:04:04;;;;;;;10.00;4.80;;;4.60;85.60;;;;;;5008672;28;20208;-92
2023/02/04 17:06:34;;;;;;;3.27;2.43;;;4.60;86.70;;;;;;5009513;28;20227;-88
2023/02/04 17:09:01;;;;;;;4.00;2.20;;;4.60;86.30;;;;;;5013319;28;20206;-86
2023/02/04 17:11:31;;;;;;;4.77;2.60;;;4.60;86.20;;;;;;5012282;28;20211;-92